バンギ の空港の天気 - METARとTAF

バンギ・ムポコ国際空港 ( FEFF / BGF ) - 中央アフリカ バンギ
飛行場実況気象(Metar)
観測時間01/19 12:00 WAT (01/19 11:00 UTC)
風向・風速西 4m/s
視程10km以上
天気現象
なし
気温31℃
湿度43%
気圧1011hPa
METARFEFF 191100Z 26007KT CAVOK 31/17 Q1011 NOSIG
過去の天気等 Google飛行場航空写真 Wunderground天気予報

過去48時間のMETAR

飛行場予報(TAF)
発表時間: 1/19 06:00 WAT (1/19 05:00 UTC)
予報対象時間: 19日7時 WAT ~ 20日13時 WAT
風向・風速静穏
視程4000m
天気現象もや
なし
19日10時 WAT から
風向・風速北北西 4m/s
視程6000m
天気現象運行に影響にある天気現象が終了
19日17時 WAT ~ 19日19時 WAT に徐々に
視程3000m
天気現象煙霧煙
19日23時 WAT ~ 20日1時 WAT に徐々に
視程10km以上
なし
20日5時 WAT ~ 20日7時 WAT に徐々に
視程2500m
天気現象もや
少しの雲 雲底高度 180m
TAF FEFF 190500Z 1906/2012 00000KT 4000 BR NSC
FM190900 34008KT 6000 NSW
BECMG 1916/1918 3000 HZFU
BECMG 1922/2000 CAVOK
BECMG 2004/2006 2500 BR FEW006